Time;durP1;ratioP1;P1;durP2;ratioP2;P2;SDS_P1;SDS_P2;PMS_P1;PMS_P2;Temp;Humidity;BMP_temperature;BMP_pressure;BME280_temperature;BME280_humidity;BME280_pressure;Samples;Min_cycle;Max_cycle;Signal;HPM_P1;HPM_P2
2023/08/08 00:01:38;;;;;;;2.73;1.40;;;;;;;21.81;57.36;96668.56;5089973;28;20245;-78
2023/08/08 00:04:05;;;;;;;3.43;1.47;;;;;;;21.87;57.26;96672.38;5089752;28;20192;-78
2023/08/08 00:06:33;;;;;;;2.00;1.40;;;;;;;21.84;57.27;96670.06;5089938;28;20195;-76
2023/08/08 00:09:00;;;;;;;2.03;1.37;;;;;;;21.98;57.42;96669.56;5071267;28;20681;-77
2023/08/08 00:11:27;;;;;;;1.43;1.20;;;;;;;21.62;58.41;96665.16;5090228;28;20216;-76
2023/08/08 00:13:54;;;;;;;1.40;1.30;;;;;;;21.79;57.79;96656.44;5089224;28;20546;-76
2023/08/08 00:16:22;;;;;;;1.90;1.57;;;;;;;21.91;57.60;96673.75;5089707;28;20328;-77
2023/08/08 00:18:53;;;;;;;1.30;1.20;;;;;;;21.93;57.78;96673.63;5088976;28;20230;-76
2023/08/08 00:21:20;;;;;;;2.07;1.40;;;;;;;21.72;57.93;96663.31;5089371;28;20220;-78
2023/08/08 00:23:48;;;;;;;3.73;1.40;;;;;;;21.68;57.99;96656.66;5089587;28;20705;-78
2023/08/08 00:26:15;;;;;;;1.83;1.20;;;;;;;21.72;57.91;96658.84;5070860;28;20201;-76
2023/08/08 00:28:42;;;;;;;1.17;1.10;;;;;;;21.98;58.10;96664.28;5089757;28;20214;-75
2023/08/08 00:31:10;;;;;;;3.10;1.00;;;;;;;21.86;57.80;96636.47;5089390;28;20297;-76
2023/08/08 00:33:38;;;;;;;2.03;1.27;;;;;;;21.92;57.57;96658.75;5089510;28;20632;-76
2023/08/08 00:36:05;;;;;;;1.30;1.20;;;;;;;22.03;57.17;96666.47;5071110;28;20268;-76
2023/08/08 00:38:32;;;;;;;1.30;1.20;;;;;;;22.19;56.36;96669.28;5071333;28;20809;-76
2023/08/08 00:40:59;;;;;;;1.10;1.00;;;;;;;22.37;56.50;96659.53;5102634;28;20273;-76
2023/08/08 00:43:26;;;;;;;1.63;1.20;;;;;;;22.42;56.31;96667.84;5096429;28;20185;-76
2023/08/08 00:45:54;;;;;;;3.97;1.40;;;;;;;22.58;55.92;96662.72;5072292;28;20558;-76
2023/08/08 00:48:22;;;;;;;1.10;1.00;;;;;;;22.43;56.42;96670.31;5089344;28;20222;-76
2023/08/08 00:50:50;;;;;;;1.00;0.90;;;;;;;22.12;56.65;96650.56;5071031;28;20698;-76
2023/08/08 00:53:19;;;;;;;1.20;1.10;;;;;;;21.96;57.71;96655.69;5070974;28;20191;-76
2023/08/08 00:55:46;;;;;;;0.97;0.97;;;;;;;22.01;57.22;96663.97;5088956;28;20638;-76
2023/08/08 00:58:15;;;;;;;1.10;1.00;;;;;;;22.08;57.35;96669.47;5054393;28;20196;-76
2023/08/08 01:00:42;;;;;;;1.33;1.00;;;;;;;22.10;56.97;96663.06;5088617;28;20239;-77
2023/08/08 01:03:09;;;;;;;0.90;0.90;;;;;;;22.07;57.14;96681.81;5089232;28;20224;-77
2023/08/08 01:06:34;;;;;;;0.93;0.83;;;;;;;22.11;57.61;96664.75;5070484;28;20178;-77
2023/08/08 01:09:16;;;;;;;1.20;1.10;;;;;;;22.23;57.35;96682.00;4986527;28;20188;-76
2023/08/08 01:11:48;;;;;;;1.00;0.90;;;;;;;22.06;57.46;96674.06;4987098;28;20218;-76
2023/08/08 01:14:18;;;;;;;1.30;1.20;;;;;;;22.18;57.52;96680.78;5044844;28;20289;-77
2023/08/08 01:16:45;;;;;;;0.80;0.80;;;;;;;21.91;58.42;96689.56;5037244;28;20204;-76
2023/08/08 01:19:23;;;;;;;1.03;0.93;;;;;;;21.70;58.69;96676.63;5088411;28;20199;-76
2023/08/08 01:21:53;;;;;;;1.27;1.17;;;;;;;21.56;58.90;96689.44;5070150;28;20691;-76
2023/08/08 01:24:29;;;;;;;1.20;1.10;;;;;;;21.50;58.43;96696.16;5070502;28;20200;-78
2023/08/08 01:26:59;;;;;;;1.23;1.10;;;;;;;21.24;59.33;96689.88;5070236;28;20202;-77
2023/08/08 01:29:27;;;;;;;0.90;0.90;;;;;;;21.29;59.41;96707.91;5069645;28;20249;-77
2023/08/08 01:31:55;;;;;;;1.10;0.90;;;;;;;21.55;58.89;96716.78;5087820;28;20251;-77
2023/08/08 01:34:23;;;;;;;0.80;0.80;;;;;;;21.57;58.88;96718.31;5070093;28;20200;-76
2023/08/08 01:36:59;;;;;;;0.83;0.83;;;;;;;21.31;58.76;96722.56;5069579;28;20198;-78
2023/08/08 01:39:30;;;;;;;0.80;0.80;;;;;;;21.08;58.13;96710.72;5053273;28;20265;-76
2023/08/08 01:41:59;;;;;;;0.80;0.80;;;;;;;20.83;59.06;96700.75;5070238;28;20641;-77
2023/08/08 01:44:28;;;;;;;0.80;0.80;;;;;;;20.93;58.98;96697.16;5087678;28;20612;-76
2023/08/08 01:46:56;;;;;;;0.90;0.90;;;;;;;20.82;58.95;96697.28;5069807;28;20214;-77
2023/08/08 01:49:23;;;;;;;0.60;0.60;;;;;;;20.83;58.96;96698.97;5087761;28;20667;-76
2023/08/08 01:51:52;;;;;;;0.80;0.57;;;;;;;20.79;59.28;96683.59;5087660;28;20188;-76
2023/08/08 01:54:19;;;;;;;0.70;0.70;;;;;;;20.56;58.94;96643.59;5087878;28;20238;-77
2023/08/08 01:56:47;;;;;;;1.00;0.70;;;;;;;20.74;59.40;96676.13;5069398;28;20184;-77
2023/08/08 01:59:14;;;;;;;0.80;0.70;;;;;;;21.04;58.95;96697.00;5069989;28;21091;-76
2023/08/08 02:01:42;;;;;;;0.60;0.60;;;;;;;20.83;58.95;96691.06;5069137;28;20216;-76
2023/08/08 02:04:10;;;;;;;0.60;0.60;;;;;;;20.98;58.84;96689.63;5069811;28;20205;-76
2023/08/08 02:06:37;;;;;;;0.77;0.77;;;;;;;21.08;58.97;96696.72;5069627;28;20189;-76
2023/08/08 02:09:05;;;;;;;0.60;0.60;;;;;;;21.10;58.71;96697.41;5087600;28;20221;-75
2023/08/08 02:11:34;;;;;;;2.90;1.60;;;;;;;21.12;58.99;96695.47;5069382;28;20594;-77
2023/08/08 02:14:02;;;;;;;0.40;0.40;;;;;;;21.12;59.01;96698.09;5069556;28;20280;-79
2023/08/08 02:16:30;;;;;;;0.53;0.53;;;;;;;21.50;58.73;96705.84;5069657;28;20233;-77
2023/08/08 02:18:57;;;;;;;1.80;0.87;;;;;;;21.71;60.87;96702.00;5069281;28;20212;-76
2023/08/08 02:21:26;;;;;;;1.00;0.70;;;;;;;21.75;61.72;96699.91;5087564;28;20217;-78
2023/08/08 02:23:53;;;;;;;0.50;0.50;;;;;;;21.85;61.28;96706.00;5069227;28;20189;-77
2023/08/08 02:26:21;;;;;;;1.47;0.60;;;;;;;21.73;61.57;96707.13;5052213;28;20189;-78
2023/08/08 02:28:48;;;;;;;1.87;0.70;;;;;;;21.95;63.07;96701.47;5068935;28;20664;-75
2023/08/08 02:31:20;;;;;;;0.60;0.60;;;;;;;21.71;62.41;96657.19;5085030;28;20196;-76
2023/08/08 02:33:50;;;;;;;1.30;0.70;;;;;;;21.74;62.96;96706.16;5069563;28;20239;-76
2023/08/08 02:36:18;;;;;;;0.70;0.50;;;;;;;21.69;62.26;96701.34;5086784;28;20197;-77
2023/08/08 02:38:45;;;;;;;0.83;0.70;;;;;;;21.64;63.09;96700.94;5087081;28;20230;-76
2023/08/08 02:41:13;;;;;;;2.07;0.77;;;;;;;21.05;65.22;96642.53;5086787;28;20228;-76
2023/08/08 02:43:40;;;;;;;1.63;0.80;;;;;;;21.55;65.90;96714.16;5069202;28;20663;-80
2023/08/08 02:46:07;;;;;;;1.13;0.70;;;;;;;21.41;65.54;96694.38;5087804;28;20267;-80
2023/08/08 02:48:35;;;;;;;1.00;0.90;;;;;;;21.35;65.98;96707.31;5068804;28;20210;-77
2023/08/08 02:51:02;;;;;;;1.27;0.80;;;;;;;21.27;65.81;96671.13;5069573;28;20677;-76
2023/08/08 02:53:29;;;;;;;0.70;0.70;;;;;;;21.27;67.14;96709.84;5068705;28;20188;-80
2023/08/08 02:55:57;;;;;;;0.70;0.70;;;;;;;21.48;68.01;96724.44;5069242;28;20197;-83
2023/08/08 02:58:28;;;;;;;0.77;0.70;;;;;;;21.53;67.66;96732.75;5068817;28;20196;-77
2023/08/08 03:00:58;;;;;;;0.63;0.63;;;;;;;21.49;67.61;96725.28;5068675;28;20294;-82
2023/08/08 03:03:25;;;;;;;0.70;0.67;;;;;;;20.99;69.27;96728.16;5068830;28;20264;-76
2023/08/08 03:05:52;;;;;;;1.47;0.80;;;;;;;21.04;70.11;96735.69;5086540;28;20192;-76
2023/08/08 03:08:20;;;;;;;0.60;0.60;;;;;;;21.08;68.80;96729.97;5069038;28;20190;-75
2023/08/08 03:10:47;;;;;;;2.50;1.07;;;;;;;21.05;68.69;96742.59;5086306;28;20224;-76
2023/08/08 03:13:14;;;;;;;0.80;0.80;;;;;;;20.50;69.36;96736.25;5069014;28;20184;-75
2023/08/08 03:15:41;;;;;;;0.87;0.83;;;;;;;20.56;69.37;96745.38;5067635;28;20268;-75
2023/08/08 03:18:09;;;;;;;0.67;0.60;;;;;;;20.61;67.29;96748.44;5068554;28;20570;-74
2023/08/08 03:20:36;;;;;;;0.53;0.53;;;;;;;20.78;68.15;96751.19;5068423;28;20186;-74
2023/08/08 03:23:05;;;;;;;0.50;0.50;;;;;;;20.67;67.60;96758.41;5068718;28;20206;-76
2023/08/08 03:25:32;;;;;;;0.60;0.60;;;;;;;20.56;67.38;96759.38;5068755;28;20667;-82
2023/08/08 03:28:00;;;;;;;0.70;0.40;;;;;;;20.60;68.11;96766.03;5051903;28;20188;-84
2023/08/08 03:30:27;;;;;;;0.50;0.50;;;;;;;20.43;67.47;96757.97;5068784;28;20189;-78
2023/08/08 03:32:55;;;;;;;0.87;0.50;;;;;;;20.42;68.63;96751.91;5068313;28;20197;-79
2023/08/08 03:35:22;;;;;;;0.60;0.60;;;;;;;20.45;69.20;96769.19;5086415;28;20181;-78
2023/08/08 03:37:49;;;;;;;0.70;0.60;;;;;;;20.32;69.91;96769.44;5051903;28;20216;-77
2023/08/08 03:40:17;;;;;;;0.73;0.70;;;;;;;20.18;69.36;96768.00;5051705;28;20196;-77
2023/08/08 03:42:45;;;;;;;1.10;0.80;;;;;;;19.85;69.83;96755.19;5069033;28;20208;-77
2023/08/08 03:45:13;;;;;;;0.70;0.70;;;;;;;19.68;69.67;96757.63;5067998;28;20200;-78
2023/08/08 03:47:40;;;;;;;0.90;0.90;;;;;;;19.82;70.40;96781.75;5084727;28;20242;-83
2023/08/08 03:50:08;;;;;;;1.03;0.40;;;;;;;19.96;69.78;96791.91;5068264;28;20280;-85
2023/08/08 03:52:37;;;;;;;0.70;0.50;;;;;;;19.98;69.34;96791.75;5068180;28;20197;-82
2023/08/08 03:55:11;;;;;;;0.60;0.57;;;;;;;19.88;69.09;96789.09;5072124;28;20215;-84
2023/08/08 03:57:39;;;;;;;2.43;1.10;;;;;;;19.79;69.56;96791.69;5071670;28;20200;-76
2023/08/08 04:00:08;;;;;;;0.77;0.70;;;;;;;19.98;70.48;96818.88;5072382;28;20188;-75
2023/08/08 04:02:41;;;;;;;1.10;0.90;;;;;;;20.07;69.84;96822.53;5089385;28;20690;-75
2023/08/08 04:05:09;;;;;;;0.63;0.63;;;;;;;20.03;70.39;96836.91;5089990;28;20625;-76
2023/08/08 04:07:36;;;;;;;0.80;0.80;;;;;;;20.02;68.96;96845.72;5071516;28;20321;-83
2023/08/08 04:10:04;;;;;;;2.13;1.50;;;;;;;19.76;69.22;96860.28;5089617;28;20211;-80
2023/08/08 04:12:32;;;;;;;2.10;0.87;;;;;;;19.45;70.11;96872.56;5077762;28;20200;-78
2023/08/08 04:15:01;;;;;;;1.30;1.20;;;;;;;19.33;70.68;96863.06;5051544;28;20293;-74
2023/08/08 04:17:32;;;;;;;0.80;0.80;;;;;;;18.96;71.39;96859.16;5053052;28;20213;-83
2023/08/08 04:19:59;;;;;;;2.53;0.87;;;;;;;18.93;72.86;96883.88;5088630;28;20554;-75
2023/08/08 04:22:30;;;;;;;0.90;0.90;;;;;;;18.82;72.01;96862.91;5089029;28;20230;-78
2023/08/08 04:24:57;;;;;;;1.60;1.50;;;;;;;18.91;72.84;96853.44;5089215;28;20283;-81
2023/08/08 04:27:24;;;;;;;1.43;1.00;;;;;;;19.03;72.91;96878.69;5089144;28;20693;-80
2023/08/08 04:29:51;;;;;;;0.80;0.77;;;;;;;19.08;71.89;96863.41;5089481;28;20252;-76
2023/08/08 04:32:18;;;;;;;1.13;1.03;;;;;;;19.24;73.07;96859.38;5054235;28;20258;-82
2023/08/08 04:34:46;;;;;;;0.83;0.80;;;;;;;19.27;72.49;96880.13;5089461;28;20291;-76
2023/08/08 04:37:14;;;;;;;1.77;1.10;;;;;;;19.20;73.71;96872.91;5099374;28;20188;-75
2023/08/08 04:39:42;;;;;;;1.93;0.80;;;;;;;19.37;72.81;96888.13;5098865;28;20253;-78
2023/08/08 04:42:09;;;;;;;1.13;0.90;;;;;;;19.27;73.32;96879.28;5074155;28;20211;-77
2023/08/08 04:44:36;;;;;;;1.10;1.00;;;;;;;19.38;73.39;96892.41;5073800;28;20192;-77
2023/08/08 04:47:04;;;;;;;1.27;1.10;;;;;;;19.33;74.45;96905.91;5092375;28;20193;-75
2023/08/08 04:49:31;;;;;;;2.23;1.03;;;;;;;19.06;74.87;96909.94;5071427;28;20664;-73
2023/08/08 04:51:59;;;;;;;2.60;1.10;;;;;;;18.98;75.49;96920.25;5089668;28;20198;-85
2023/08/08 04:54:26;;;;;;;1.30;1.00;;;;;;;18.90;75.87;96931.34;5088745;28;20281;-73
2023/08/08 04:56:53;;;;;;;1.77;1.27;;;;;;;18.68;76.00;96941.91;5089252;28;20638;-73
2023/08/08 04:59:20;;;;;;;1.60;1.30;;;;;;;18.56;76.41;96946.34;5089012;28;20197;-74
2023/08/08 05:01:47;;;;;;;3.60;1.33;;;;;;;18.64;76.23;96977.19;5053242;28;20277;-76
2023/08/08 05:04:14;;;;;;;1.50;1.40;;;;;;;18.50;75.72;96972.22;5087643;28;20195;-73
2023/08/08 05:06:41;;;;;;;1.60;1.47;;;;;;;18.42;75.36;96996.34;5063527;28;20638;-73
2023/08/08 05:09:09;;;;;;;1.77;1.30;;;;;;;18.25;73.54;96978.50;5087923;28;20728;-73
2023/08/08 05:11:36;;;;;;;1.63;1.50;;;;;;;18.22;74.56;96983.13;5069812;28;20634;-75
2023/08/08 05:14:03;;;;;;;2.00;1.80;;;;;;;18.02;75.41;96978.56;5088270;28;20225;-73
2023/08/08 05:16:30;;;;;;;2.17;1.93;;;;;;;17.99;74.50;96976.19;5067565;28;20260;-73
2023/08/08 05:18:58;;;;;;;3.23;1.90;;;;;;;17.97;76.07;96971.06;5070271;28;20180;-74
2023/08/08 05:21:25;;;;;;;4.00;2.23;;;;;;;17.82;77.08;96969.63;5087859;28;20183;-75
2023/08/08 05:23:55;;;;;;;1.77;1.67;;;;;;;17.62;76.51;96960.63;5088547;28;20193;-85
2023/08/08 05:26:22;;;;;;;3.90;1.87;;;;;;;17.84;77.17;96965.09;5045147;28;20194;-74
2023/08/08 05:28:49;;;;;;;1.70;1.60;;;;;;;18.03;76.20;96988.97;5069457;28;20222;-75
2023/08/08 05:31:17;;;;;;;2.07;1.70;;;;;;;18.01;76.33;96971.69;5048232;28;20292;-79
2023/08/08 05:33:44;;;;;;;3.17;1.80;;;;;;;18.31;76.77;96988.50;5088154;28;20186;-77
2023/08/08 05:36:11;;;;;;;2.07;1.87;;;;;;;18.06;75.20;96932.84;5088706;28;20201;-76
2023/08/08 05:38:39;;;;;;;2.20;1.87;;;;;;;18.36;73.87;97003.88;5070465;28;20717;-75
2023/08/08 05:41:06;;;;;;;2.97;1.97;;;;;;;18.53;73.99;96987.69;5088342;28;20603;-81
2023/08/08 05:43:33;;;;;;;4.33;2.20;;;;;;;18.68;74.71;97012.72;5086673;28;20221;-86
2023/08/08 05:46:04;;;;;;;2.30;2.10;;;;;;;18.86;73.70;97018.31;5081129;28;20200;-79
2023/08/08 05:48:31;;;;;;;4.30;1.80;;;;;;;18.73;72.87;97015.84;5067183;28;20690;-77
2023/08/08 05:50:59;;;;;;;4.80;1.90;;;;;;;18.63;74.03;97013.09;5068973;28;20256;-75
2023/08/08 05:53:27;;;;;;;2.40;1.70;;;;;;;18.59;72.78;97026.56;5087189;28;20195;-80
2023/08/08 05:55:54;;;;;;;3.10;1.80;;;;;;;18.51;73.93;97006.16;5087504;28;20645;-75
2023/08/08 05:58:22;;;;;;;2.90;1.70;;;;;;;18.61;72.42;97022.03;5052922;28;20289;-77
2023/08/08 06:00:49;;;;;;;2.23;2.00;;;;;;;18.44;72.35;96998.91;5069557;28;20578;-76
2023/08/08 06:03:17;;;;;;;1.80;1.70;;;;;;;18.38;72.28;97015.91;5086501;28;20246;-78
2023/08/08 06:05:44;;;;;;;5.80;1.80;;;;;;;18.21;73.12;96987.53;5087603;28;20187;-75
2023/08/08 06:08:13;;;;;;;2.17;1.97;;;;;;;18.37;74.47;97013.41;5085490;28;20242;-76
2023/08/08 06:11:35;;;;;;;2.50;2.30;;;;;;;18.52;72.73;97010.47;5067663;28;20670;-76
2023/08/08 06:14:56;;;;;;;2.40;2.03;;;;;;;18.60;73.18;97018.59;5066992;28;20238;-78
2023/08/08 06:18:17;;;;;;;2.77;2.50;;;;;;;18.80;72.73;97019.63;5085416;28;20210;-75
2023/08/08 06:21:38;;;;;;;2.93;2.43;;;;;;;18.47;74.74;96975.06;5085497;28;20198;-80
2023/08/08 06:24:58;;;;;;;3.10;2.80;;;;;;;18.82;73.12;97020.34;5069939;28;20584;-75
2023/08/08 06:28:19;;;;;;;3.50;2.73;;;;;;;18.95;72.97;97021.06;5085890;28;20195;-75
2023/08/08 06:31:40;;;;;;;3.07;2.73;;;;;;;18.94;71.98;97008.88;5069767;28;20215;-76
2023/08/08 06:35:01;;;;;;;3.00;2.27;;;;;;;19.12;72.02;97017.94;5052617;28;20196;-77
2023/08/08 06:38:22;;;;;;;6.13;3.53;;;;;;;18.66;71.52;97019.88;5085316;28;20212;-78
2023/08/08 06:41:43;;;;;;;3.77;2.87;;;;;;;18.94;71.99;97027.25;5085513;28;20203;-78
2023/08/08 06:45:14;;;;;;;3.03;2.07;;;;;;;18.89;71.51;97037.28;5055617;28;20198;-82
2023/08/08 06:48:35;;;;;;;2.50;2.30;;;;;;;18.47;73.23;97036.22;5085047;28;20252;-76
2023/08/08 06:51:55;;;;;;;3.37;2.80;;;;;;;18.65;72.72;97047.06;5085087;28;20287;-75
2023/08/08 06:55:16;;;;;;;2.93;2.73;;;;;;;18.55;73.13;97053.97;5084520;28;20542;-76
2023/08/08 06:58:37;;;;;;;2.30;2.10;;;;;;;18.47;72.50;97051.94;5069973;28;20187;-77
2023/08/08 07:01:57;;;;;;;2.23;2.03;;;;;;;18.28;73.43;97064.75;5067724;28;20701;-77
2023/08/08 07:05:18;;;;;;;2.27;2.00;;;;;;;18.04;72.66;97077.09;5085340;28;20254;-82
2023/08/08 07:08:39;;;;;;;2.00;1.60;;;;;;;18.04;73.19;97084.97;5067463;28;20687;-82
2023/08/08 07:12:00;;;;;;;2.17;1.77;;;;;;;17.93;69.46;97102.44;5070580;28;20202;-77
2023/08/08 07:15:20;;;;;;;1.53;1.43;;;;;;;17.30;72.12;97097.44;5069834;28;20193;-84
2023/08/08 07:18:41;;;;;;;1.43;1.33;;;;;;;17.24;71.84;97096.09;5052743;28;20601;-80
2023/08/08 07:22:02;;;;;;;1.33;1.20;;;;;;;17.34;71.95;97091.03;5084529;28;20195;-77
2023/08/08 07:25:22;;;;;;;2.00;1.50;;;;;;;17.45;72.29;97073.63;5069172;28;20717;-78
2023/08/08 07:28:43;;;;;;;1.30;1.20;;;;;;;17.65;72.56;97078.28;5086269;28;20193;-75
2023/08/08 07:32:04;;;;;;;1.73;1.43;;;;;;;17.92;72.04;97080.63;5088858;28;20208;-77
2023/08/08 07:35:25;;;;;;;1.33;1.23;;;;;;;17.86;68.95;97063.59;5053850;28;20193;-78
2023/08/08 07:38:46;;;;;;;1.50;1.30;;;;;;;17.41;73.19;97079.19;5088915;28;20194;-74
2023/08/08 07:42:07;;;;;;;2.67;2.13;;;;;;;17.11;72.42;97071.75;5088801;28;20222;-79
2023/08/08 07:45:29;;;;;;;1.10;1.00;;;;;;;17.06;69.31;97069.44;5089394;28;20292;-76
2023/08/08 07:48:50;;;;;;;1.00;0.90;;;;;;;16.66;67.63;96980.84;5072965;28;20242;-78
2023/08/08 07:52:11;;;;;;;1.00;0.90;;;;;;;17.07;68.30;97065.91;5088466;28;20197;-80
2023/08/08 07:55:31;;;;;;;1.67;1.23;;;;;;;17.35;68.05;97058.69;5088355;28;20225;-76
2023/08/08 07:58:52;;;;;;;2.03;1.00;;;;;;;17.93;68.82;97060.53;5088994;28;20960;-77
2023/08/08 08:02:13;;;;;;;1.03;0.93;;;;;;;17.99;68.65;97055.63;5070272;28;20624;-77
2023/08/08 08:05:34;;;;;;;1.30;1.20;;;;;;;17.70;71.09;97059.59;5069844;28;20272;-78
2023/08/08 08:08:55;;;;;;;3.03;1.30;;;;;;;17.60;70.42;97061.19;5069820;28;20291;-77
2023/08/08 08:12:16;;;;;;;1.63;1.13;;;;;;;17.87;70.43;97067.03;5073837;28;20187;-75
2023/08/08 08:15:37;;;;;;;1.73;1.20;;;;;;;17.94;68.22;97073.50;5088756;28;20618;-75
2023/08/08 08:18:58;;;;;;;1.30;1.00;;;;;;;18.05;67.07;97072.69;5069526;28;20193;-77
2023/08/08 08:22:18;;;;;;;0.80;0.80;;;;;;;18.06;65.84;97072.59;5087336;28;20191;-77
2023/08/08 08:25:39;;;;;;;1.17;1.07;;;;;;;18.56;66.54;97066.16;5087793;28;20182;-74
2023/08/08 08:29:00;;;;;;;1.10;1.00;;;;;;;18.46;63.92;97080.94;5072277;28;20201;-77
2023/08/08 08:32:22;;;;;;;1.70;0.70;;;;;;;18.54;62.69;97082.00;5072436;28;20190;-75
2023/08/08 08:35:43;;;;;;;1.17;0.80;;;;;;;18.50;62.96;97087.59;5071962;28;20225;-82
2023/08/08 08:39:05;;;;;;;1.10;0.90;;;;;;;18.35;63.50;97046.78;5055021;28;20195;-83
2023/08/08 08:42:25;;;;;;;1.90;0.70;;;;;;;18.86;63.01;97076.88;5087605;28;20337;-82
2023/08/08 08:45:46;;;;;;;0.60;0.60;;;;;;;19.06;62.58;97080.59;5072033;28;20657;-82
2023/08/08 08:49:08;;;;;;;1.43;1.33;;;;;;;19.01;61.34;97080.94;5071240;28;20571;-83
2023/08/08 08:52:29;;;;;;;2.20;0.90;;;;;;;19.17;60.19;97083.16;5087355;28;20187;-82
2023/08/08 08:55:50;;;;;;;0.63;0.53;;;;;;;19.46;56.33;97074.69;5069345;28;20492;-85
2023/08/08 08:59:10;;;;;;;0.60;0.60;;;;;;;19.40;54.86;97067.28;5069831;28;20200;-85
2023/08/08 09:02:31;;;;;;;0.57;0.50;;;;;;;19.51;55.04;97070.84;5086929;28;20220;-80
2023/08/08 09:05:54;;;;;;;0.70;0.70;;;;;;;19.70;54.55;97084.16;5086191;28;20191;-76
2023/08/08 09:09:15;;;;;;;0.60;0.60;;;;;;;20.01;54.29;97093.84;5070626;28;20195;-84
2023/08/08 09:12:36;;;;;;;0.60;0.60;;;;;;;20.07;54.38;97082.81;5068222;28;20192;-80
2023/08/08 09:15:57;;;;;;;0.90;0.80;;;;;;;20.33;54.05;97078.88;5052419;28;20272;-84
2023/08/08 09:19:18;;;;;;;0.80;0.80;;;;;;;20.56;53.47;97083.03;5086603;28;20670;-79
2023/08/08 09:22:39;;;;;;;0.80;0.80;;;;;;;20.58;53.36;97075.00;5093666;28;20732;-77
2023/08/08 09:25:59;;;;;;;0.97;0.80;;;;;;;21.00;52.76;97087.94;5096051;28;20189;-80
2023/08/08 09:29:20;;;;;;;2.07;1.30;;;;;;;21.61;55.29;97083.44;5088044;28;20197;-77
2023/08/08 09:32:45;;;;;;;4.23;1.73;;;;;;;21.89;60.90;97084.44;5069255;28;20273;-75
2023/08/08 09:36:05;;;;;;;2.80;1.73;;;;;;;22.11;59.84;97085.97;5068952;28;20211;-76
2023/08/08 09:39:26;;;;;;;2.77;1.47;;;;;;;22.06;56.34;97089.03;5086645;28;20198;-75
2023/08/08 09:42:48;;;;;;;2.63;1.40;;;;;;;21.71;55.48;97041.25;5068341;28;20223;-79
2023/08/08 09:46:15;;;;;;;6.87;2.00;;;;;;;22.20;55.26;97080.69;5068356;28;20185;-77
2023/08/08 09:49:36;;;;;;;3.83;1.93;;;;;;;22.40;55.51;97071.75;5085598;28;20194;-75
2023/08/08 09:52:57;;;;;;;1.40;1.30;;;;;;;22.01;54.98;97024.47;5085004;28;20702;-75
2023/08/08 09:56:18;;;;;;;1.57;1.47;;;;;;;22.62;55.02;97076.75;5050851;28;20251;-75
2023/08/08 09:59:38;;;;;;;4.03;1.97;;;;;;;22.75;54.95;97080.88;5070037;28;20191;-75
2023/08/08 10:03:00;;;;;;;7.70;2.40;;;;;;;22.95;52.98;97077.19;5085478;28;20300;-78
2023/08/08 10:06:21;;;;;;;2.23;1.30;;;;;;;22.89;52.80;97072.50;5069502;28;20239;-75
2023/08/08 10:09:42;;;;;;;1.67;1.10;;;;;;;22.97;52.58;97083.16;5085063;28;20746;-76
2023/08/08 10:13:02;;;;;;;7.13;1.30;;;;;;;22.93;51.77;97079.97;5053160;28;20194;-77
2023/08/08 10:16:23;;;;;;;3.00;1.43;;;;;;;22.95;50.73;97079.84;5085859;28;20502;-78
2023/08/08 10:19:44;;;;;;;3.00;1.40;;;;;;;22.99;52.17;97078.56;5085148;28;20728;-75
2023/08/08 10:23:07;;;;;;;7.10;1.70;;;;;;;23.06;52.32;97077.81;5050152;28;20259;-77
2023/08/08 10:26:28;;;;;;;3.53;2.57;;;;;;;23.40;51.82;97072.81;5085306;28;20283;-75
2023/08/08 10:29:48;;;;;;;4.30;1.53;;;;;;;23.59;51.15;97070.06;5067657;28;20218;-76
2023/08/08 10:33:10;;;;;;;2.23;1.53;;;;;;;23.65;50.65;97066.81;5085625;28;20202;-76
2023/08/08 10:36:37;;;;;;;5.47;1.97;;;;;;;23.76;49.96;97068.41;5067185;28;20281;-76
2023/08/08 10:39:58;;;;;;;1.80;1.17;;;;;;;23.55;49.89;97066.06;5066413;28;20281;-80
2023/08/08 10:43:21;;;;;;;1.47;1.03;;;;;;;23.42;49.54;97055.84;5069343;28;20219;-78
2023/08/08 10:46:23;;;;;;;2.90;0.70;;;;;;;23.07;48.48;97070.72;5085534;28;20217;-75
2023/08/08 10:49:44;;;;;;;1.20;0.87;;;;;;;23.02;45.91;97044.75;5066675;28;20201;-75
2023/08/08 10:53:10;;;;;;;3.00;0.93;;;;;;;23.51;46.50;97050.63;5066210;28;20248;-75
2023/08/08 10:56:33;;;;;;;1.77;1.57;;;;;;;23.98;48.60;97029.09;5068767;28;20280;-82
2023/08/08 10:59:57;;;;;;;1.27;1.17;;;;;;;23.93;47.27;97041.94;5069275;28;20782;-78
2023/08/08 11:03:18;;;;;;;3.63;1.20;;;;;;;24.12;47.35;97052.41;5066610;28;20218;-76
2023/08/08 11:06:38;;;;;;;0.73;0.70;;;;;;;23.30;42.90;97037.66;5084529;28;20220;-77
2023/08/08 11:09:59;;;;;;;1.80;1.10;;;;;;;23.49;45.66;97056.09;5084529;28;20234;-77
2023/08/08 11:13:20;;;;;;;0.70;0.70;;;;;;;23.47;42.91;97052.75;5085326;28;20190;-80
2023/08/08 11:16:41;;;;;;;1.17;0.70;;;;;;;23.22;41.86;97046.34;5085647;28;20486;-83
2023/08/08 11:20:01;;;;;;;1.00;1.00;;;;;;;23.11;42.51;97057.09;5084930;28;20196;-85
2023/08/08 11:23:22;;;;;;;0.80;0.80;;;;;;;23.34;42.66;97057.56;5049680;28;20212;-83
2023/08/08 11:26:45;;;;;;;1.30;0.80;;;;;;;23.57;43.16;97042.09;5084876;28;20489;-83
2023/08/08 11:30:11;;;;;;;0.63;0.63;;;;;;;23.35;43.22;97051.28;5067051;28;20740;-80
2023/08/08 11:33:34;;;;;;;0.80;0.80;;;;;;;23.01;42.70;97047.53;5085262;28;20205;-82
2023/08/08 11:36:58;;;;;;;1.83;0.80;;;;;;;23.26;42.52;97038.94;5084656;28;20217;-79
2023/08/08 11:40:18;;;;;;;0.80;0.80;;;;;;;23.21;41.67;97035.88;5084811;28;20188;-79
2023/08/08 11:43:40;;;;;;;1.30;1.20;;;;;;;23.18;42.32;97047.63;5068962;28;20617;-79
2023/08/08 11:47:03;;;;;;;1.90;1.40;;;;;;;23.24;42.79;97025.03;5085102;28;20199;-84
2023/08/08 11:50:29;;;;;;;1.17;1.00;;;;;;;23.47;42.44;97039.53;5084833;28;20208;-83
2023/08/08 11:53:50;;;;;;;1.43;0.90;;;;;;;23.29;42.65;97018.31;5085880;28;20283;-80
2023/08/08 11:57:14;;;;;;;0.80;0.80;;;;;;;23.51;41.92;97032.13;5086394;28;20192;-75
2023/08/08 12:00:36;;;;;;;0.80;0.80;;;;;;;23.34;44.04;97020.56;5085146;28;20207;-83
2023/08/08 12:03:58;;;;;;;0.70;0.70;;;;;;;23.41;42.83;97027.72;5085755;28;20228;-80
2023/08/08 12:07:22;;;;;;;2.27;1.20;;;;;;;23.55;42.29;97033.50;5085595;28;20196;-83
2023/08/08 12:10:43;;;;;;;1.83;0.93;;;;;;;23.33;42.93;97010.94;5083855;28;20306;-75
2023/08/08 12:14:03;;;;;;;3.33;0.80;;;;;;;23.39;43.08;97027.03;5084486;28;20382;-76
2023/08/08 12:17:24;;;;;;;1.03;0.80;;;;;;;23.56;42.67;97014.81;5088633;28;20186;-76
2023/08/08 12:20:45;;;;;;;1.10;1.00;;;;;;;23.67;42.33;97017.25;5069635;28;20186;-77
2023/08/08 12:24:06;;;;;;;1.20;1.00;;;;;;;23.54;39.32;97016.78;5087414;28;20774;-82
2023/08/08 12:27:26;;;;;;;0.90;0.80;;;;;;;23.53;39.58;97015.13;5087941;28;20370;-83
2023/08/08 12:30:47;;;;;;;0.80;0.80;;;;;;;23.76;38.70;97011.03;5072342;28;20284;-84
2023/08/08 12:34:08;;;;;;;0.50;0.50;;;;;;;23.99;39.83;97011.38;5088710;28;20200;-85
2023/08/08 12:37:29;;;;;;;0.67;0.67;;;;;;;23.88;39.35;97004.56;5087958;28;20198;-85
2023/08/08 12:40:50;;;;;;;0.93;0.60;;;;;;;23.74;41.01;96994.50;5069487;28;20190;-78
2023/08/08 12:44:12;;;;;;;0.60;0.60;;;;;;;24.12;40.81;97012.69;5087596;28;20228;-84
2023/08/08 12:47:36;;;;;;;0.70;0.70;;;;;;;23.74;40.29;97004.25;5087877;28;20291;-78
2023/08/08 12:50:56;;;;;;;1.03;0.80;;;;;;;23.41;41.91;97026.91;5071504;28;20196;-75
2023/08/08 12:54:17;;;;;;;0.63;0.63;;;;;;;23.76;40.78;97005.75;5086650;28;20200;-77
2023/08/08 12:57:38;;;;;;;0.80;0.70;;;;;;;23.85;40.84;97009.28;5086986;28;20650;-75
2023/08/08 13:00:59;;;;;;;0.80;0.80;;;;;;;23.56;39.61;97011.34;5087728;28;20200;-81
2023/08/08 13:04:20;;;;;;;0.60;0.60;;;;;;;23.75;41.08;96997.97;5088728;28;20222;-74
2023/08/08 13:07:41;;;;;;;0.53;0.53;;;;;;;23.64;40.56;96988.44;5088084;28;20276;-76
2023/08/08 13:11:01;;;;;;;0.70;0.70;;;;;;;23.80;40.03;96990.44;5065256;28;20227;-78
2023/08/08 13:14:22;;;;;;;1.80;1.27;;;;;;;23.81;40.43;97002.66;5064784;28;20222;-76
2023/08/08 13:17:43;;;;;;;0.80;0.80;;;;;;;23.87;41.13;97002.88;5065773;28;20192;-74
2023/08/08 13:21:03;;;;;;;0.80;0.80;;;;;;;23.87;39.55;97008.16;5066586;28;20197;-77
2023/08/08 13:24:24;;;;;;;0.57;0.57;;;;;;;23.76;39.80;97004.94;5064842;28;20411;-74
2023/08/08 13:27:45;;;;;;;1.60;0.70;;;;;;;23.78;40.16;96992.41;5064229;28;20359;-76
2023/08/08 13:31:08;;;;;;;0.70;0.70;;;;;;;23.76;40.80;96997.81;5065581;28;20191;-74
2023/08/08 13:34:29;;;;;;;0.70;0.70;;;;;;;23.89;40.82;96987.69;5067599;28;20186;-74
2023/08/08 13:37:52;;;;;;;0.67;0.67;;;;;;;23.94;41.15;96993.34;5066922;28;20313;-75